createdAt,value
2023-09-03T00:02:16.177Z,98.15
2023-09-03T00:07:23.962Z,99.11
2023-09-03T00:12:31.867Z,99.45
2023-09-03T00:17:39.584Z,99.71
2023-09-03T00:22:47.421Z,99.87
2023-09-03T00:27:55.424Z,99.39
2023-09-03T00:33:03.425Z,99.25
2023-09-03T00:38:11.044Z,99.68
2023-09-03T00:43:19.218Z,99.72
2023-09-03T00:48:30.507Z,99.68
2023-09-03T00:53:40.182Z,99.57
2023-09-03T00:58:48.807Z,100.00
2023-09-03T01:03:57.787Z,100.00
2023-09-03T01:09:06.671Z,100.00
2023-09-03T01:14:27.318Z,100.00
2023-09-03T01:19:57.420Z,100.00
2023-09-03T01:25:33.870Z,100.00
2023-09-03T01:30:43.444Z,100.00
2023-09-03T01:35:52.238Z,100.00
2023-09-03T01:41:00.943Z,100.00
2023-09-03T01:46:14.276Z,100.00
2023-09-03T02:03:09.340Z,100.00
2023-09-03T02:08:20.308Z,100.00
2023-09-03T02:13:28.341Z,100.00
2023-09-03T02:18:36.357Z,100.00
2023-09-03T02:23:44.040Z,100.00
2023-09-03T02:28:52.899Z,99.92
2023-09-03T02:34:00.543Z,99.86
2023-09-03T02:39:09.480Z,100.00
2023-09-03T02:44:17.169Z,100.00
2023-09-03T02:49:33.580Z,100.00
2023-09-03T02:54:40.920Z,100.00
2023-09-03T02:59:48.307Z,100.00
2023-09-03T03:04:56.540Z,99.91
2023-09-03T03:10:04.578Z,99.90
2023-09-03T03:15:12.714Z,99.81
2023-09-03T03:20:22.645Z,99.81
2023-09-03T03:25:30.461Z,100.00
2023-09-03T03:30:38.204Z,100.00
2023-09-03T03:35:46.384Z,100.00
2023-09-03T03:40:54.230Z,100.00
2023-09-03T03:46:02.783Z,100.00
2023-09-03T03:51:11.160Z,100.00
2023-09-03T03:56:18.733Z,100.00
2023-09-03T04:01:26.858Z,100.00
2023-09-03T04:06:35.638Z,100.00
2023-09-03T04:11:43.232Z,100.00
2023-09-03T04:16:51.063Z,100.00
2023-09-03T04:21:58.378Z,100.00
2023-09-03T04:27:06.483Z,100.00
2023-09-03T04:32:13.781Z,100.00
2023-09-03T04:37:21.113Z,100.00
2023-09-03T04:42:29.416Z,100.00
2023-09-03T04:47:37.069Z,100.00
2023-09-03T04:52:46.579Z,100.00
2023-09-03T04:57:54.076Z,100.00
2023-09-03T05:03:02.838Z,100.00
2023-09-03T05:08:11.184Z,100.00
2023-09-03T05:13:18.775Z,100.00
2023-09-03T05:18:27.553Z,100.00
2023-09-03T05:23:35.045Z,100.00
2023-09-03T05:28:42.743Z,100.00
2023-09-03T05:33:50.416Z,100.00
2023-09-03T05:38:58.879Z,100.00
2023-09-03T05:44:10.780Z,100.00
2023-09-03T05:49:18.374Z,100.00
2023-09-03T05:54:26.604Z,100.00
2023-09-03T05:59:34.235Z,100.00
2023-09-03T06:04:41.357Z,100.00
2023-09-03T06:09:49.067Z,100.00
2023-09-03T06:14:56.515Z,100.00
2023-09-03T06:20:05.076Z,100.00
2023-09-03T06:25:14.803Z,100.00
2023-09-03T06:30:22.619Z,100.00
2023-09-03T06:35:30.135Z,100.00
2023-09-03T06:40:37.581Z,100.00
2023-09-03T06:45:45.670Z,100.00
2023-09-03T06:50:53.885Z,100.00
2023-09-03T06:56:01.926Z,100.00
2023-09-03T07:01:09.645Z,100.00
2023-09-03T07:06:17.021Z,100.00
2023-09-03T07:11:24.641Z,100.00
2023-09-03T07:16:32.246Z,100.00
2023-09-03T07:21:39.913Z,100.00
2023-09-03T07:26:49.650Z,100.00
2023-09-03T07:31:57.235Z,100.00
2023-09-03T07:37:06.057Z,100.00
2023-09-03T07:42:15.039Z,100.00
2023-09-03T07:47:22.755Z,100.00
2023-09-03T07:52:34.154Z,100.00
2023-09-03T07:57:41.729Z,100.00
2023-09-03T08:02:49.362Z,100.00
2023-09-03T08:07:57.558Z,100.00
2023-09-03T08:13:05.914Z,100.00
2023-09-03T08:18:13.444Z,100.00
2023-09-03T08:23:21.229Z,100.00
2023-09-03T08:28:29.742Z,100.00
2023-09-03T08:33:39.186Z,100.00
2023-09-03T08:38:46.671Z,100.00
2023-09-03T08:44:01.106Z,100.00
2023-09-03T08:49:09.299Z,100.00
2023-09-03T08:54:17.519Z,100.00
2023-09-03T08:59:31.797Z,100.00
2023-09-03T09:04:39.799Z,100.00
2023-09-03T09:09:48.567Z,100.00
2023-09-03T09:15:01.912Z,100.00
2023-09-03T09:20:11.846Z,100.00
2023-09-03T09:25:24.673Z,100.00
2023-09-03T09:30:32.271Z,100.00
2023-09-03T09:35:39.803Z,100.00
2023-09-03T09:40:53.453Z,100.00
2023-09-03T09:46:01.012Z,100.00
2023-09-03T09:51:13.244Z,99.87
2023-09-03T09:56:22.321Z,100.00
2023-09-03T10:01:43.664Z,100.00
2023-09-03T10:06:52.708Z,99.77
2023-09-03T10:12:02.812Z,98.18
2023-09-03T10:17:11.504Z,97.10
2023-09-03T10:22:20.846Z,96.46
2023-09-03T10:27:34.426Z,95.74
2023-09-03T10:32:46.141Z,94.37
2023-09-03T10:37:53.870Z,94.58
2023-09-03T10:43:27.619Z,93.59
2023-09-03T10:48:36.368Z,88.31
2023-09-03T10:53:46.656Z,84.09
2023-09-03T10:58:59.104Z,80.52
2023-09-03T11:04:07.430Z,79.64
2023-09-03T11:09:27.159Z,76.53
2023-09-03T11:14:36.294Z,75.59
2023-09-03T11:23:15.619Z,73.74
2023-09-03T11:28:22.962Z,71.71
2023-09-03T11:33:31.451Z,72.29
2023-09-03T11:38:39.066Z,70.88
2023-09-03T11:43:47.800Z,70.17
2023-09-03T11:48:57.883Z,69.02
2023-09-03T11:54:07.154Z,67.71
2023-09-03T11:59:14.908Z,67.22
2023-09-03T12:04:23.250Z,66.16
2023-09-03T12:09:32.912Z,66.37
2023-09-03T12:14:40.548Z,66.33
2023-09-03T12:19:48.242Z,65.54
2023-09-03T12:25:05.431Z,65.59
2023-09-03T12:30:13.906Z,65.62
2023-09-03T12:35:22.407Z,66.12
2023-09-03T12:40:30.796Z,65.62
2023-09-03T12:45:39.665Z,64.76
2023-09-03T12:51:02.338Z,64.76
2023-09-03T12:56:11.130Z,63.75
2023-09-03T13:01:19.053Z,64.19
2023-09-03T13:06:27.038Z,64.40
2023-09-03T13:11:34.559Z,64.36
2023-09-03T13:16:41.987Z,65.22
2023-09-03T13:24:01.561Z,63.44
2023-09-03T13:29:10.189Z,63.07
2023-09-03T13:34:20.185Z,64.52
2023-09-03T13:39:28.172Z,63.08
2023-09-03T13:44:36.043Z,63.07
2023-09-03T13:49:43.517Z,62.84
2023-09-03T13:54:53.969Z,62.94
2023-09-03T14:00:05.208Z,62.24
2023-09-03T14:05:16.051Z,62.38
2023-09-03T14:10:24.085Z,63.57
2023-09-03T14:15:33.975Z,64.17
2023-09-03T14:20:41.449Z,64.43
2023-09-03T14:25:49.187Z,64.94
2023-09-03T14:31:11.509Z,63.29
2023-09-03T14:36:18.877Z,63.33
2023-09-03T14:41:28.700Z,61.84
2023-09-03T14:46:36.357Z,62.39
2023-09-03T14:51:43.889Z,61.92
2023-09-03T14:56:51.278Z,61.52
2023-09-03T15:01:59.584Z,62.77
2023-09-03T15:07:08.638Z,63.36
2023-09-03T15:12:15.939Z,63.20
2023-09-03T15:17:23.523Z,63.54
2023-09-03T15:22:31.226Z,63.79
2023-09-03T15:27:38.715Z,64.83
2023-09-03T15:32:50.110Z,65.25
2023-09-03T15:37:57.592Z,65.71
2023-09-03T15:43:05.779Z,65.56
2023-09-03T15:48:16.237Z,64.16
2023-09-03T15:53:26.900Z,64.59
2023-09-03T15:58:38.201Z,65.30
2023-09-03T16:03:45.993Z,65.35
2023-09-03T16:08:53.604Z,65.99
2023-09-03T16:14:02.565Z,66.57
2023-09-03T16:19:10.617Z,67.15
2023-09-03T16:24:18.282Z,68.00
2023-09-03T16:29:26.228Z,67.07
2023-09-03T16:34:34.760Z,65.76
2023-09-03T16:39:42.359Z,65.08
2023-09-03T16:44:51.232Z,64.67
2023-09-03T16:50:02.011Z,64.30
2023-09-03T16:55:12.497Z,64.70
2023-09-03T17:00:20.630Z,65.05
2023-09-03T17:05:28.687Z,65.46
2023-09-03T17:10:37.373Z,66.16
2023-09-03T17:15:45.971Z,66.64
2023-09-03T17:26:28.012Z,68.37
2023-09-03T17:31:36.655Z,68.98
2023-09-03T17:36:45.501Z,69.48
2023-09-03T17:41:55.571Z,70.17
2023-09-03T17:47:04.002Z,70.72
2023-09-03T17:52:14.866Z,71.48
2023-09-03T17:57:24.165Z,72.32
2023-09-03T18:02:33.184Z,73.91
2023-09-03T18:07:40.966Z,74.18
2023-09-03T18:12:51.521Z,74.95
2023-09-03T18:17:59.844Z,75.38
2023-09-03T18:23:07.861Z,75.75
2023-09-03T18:28:16.361Z,76.78
2023-09-03T18:33:24.136Z,77.90
2023-09-03T18:38:32.172Z,78.39
2023-09-03T18:43:39.829Z,78.76
2023-09-03T18:48:47.234Z,79.86
2023-09-03T18:53:54.794Z,80.16
2023-09-03T18:59:03.130Z,80.38
2023-09-03T19:04:11.059Z,81.32
2023-09-03T19:09:20.993Z,81.94
2023-09-03T19:14:29.222Z,81.96
2023-09-03T19:19:36.829Z,82.25
2023-09-03T19:24:44.924Z,83.22
2023-09-03T19:29:52.408Z,83.40
2023-09-03T19:35:00.378Z,83.83
2023-09-03T19:40:11.573Z,84.49
2023-09-03T19:45:19.636Z,84.89
2023-09-03T19:50:27.193Z,85.49
2023-09-03T19:55:36.738Z,86.23
2023-09-03T20:00:47.630Z,86.82
2023-09-03T20:06:02.291Z,87.34
2023-09-03T20:11:11.201Z,87.52
2023-09-03T20:16:18.943Z,88.13
2023-09-03T20:21:26.482Z,88.41
2023-09-03T20:26:34.625Z,89.12
2023-09-03T20:31:42.367Z,89.23
2023-09-03T20:36:50.338Z,89.78
2023-09-03T20:41:58.766Z,89.89
2023-09-03T20:47:06.649Z,89.93
2023-09-03T20:52:14.607Z,90.32
2023-09-03T20:57:22.543Z,90.72
2023-09-03T21:02:30.143Z,91.07
2023-09-03T21:07:37.792Z,91.03
2023-09-03T21:12:45.456Z,91.60
2023-09-03T21:17:53.456Z,91.30
2023-09-03T21:23:01.244Z,91.33
2023-09-03T21:28:10.249Z,91.45
2023-09-03T21:33:18.983Z,91.62
2023-09-03T21:38:26.794Z,91.83
2023-09-03T21:43:39.275Z,92.35
2023-09-03T21:48:48.371Z,91.69
2023-09-03T21:53:56.020Z,91.61
2023-09-03T21:59:03.362Z,91.80
2023-09-03T22:04:11.502Z,91.84
2023-09-03T22:09:19.420Z,91.53
2023-09-03T22:14:26.997Z,91.97
2023-09-03T22:19:34.674Z,92.04
2023-09-03T22:24:42.680Z,91.47
2023-09-03T22:29:50.004Z,91.30
2023-09-03T22:34:57.548Z,91.12
2023-09-03T22:40:06.301Z,91.44
2023-09-03T22:45:15.467Z,91.45
2023-09-03T22:50:23.038Z,90.63
2023-09-03T22:55:30.437Z,89.88
2023-09-03T23:00:38.193Z,89.55
2023-09-03T23:05:47.125Z,89.30
2023-09-03T23:10:54.557Z,88.65
2023-09-03T23:16:02.015Z,88.67
2023-09-03T23:21:11.887Z,89.38
2023-09-03T23:26:24.245Z,89.32
2023-09-03T23:31:32.014Z,89.44
2023-09-03T23:36:39.286Z,89.76
2023-09-03T23:41:47.449Z,90.13
2023-09-03T23:47:06.799Z,90.50
2023-09-03T23:52:24.678Z,91.41
2023-09-03T23:57:34.017Z,91.51
